sensor_id;sensor_type;location;lat;lon;timestamp;temperature;humidity
56322;DHT22;42227;6.376;-10.782;2022-11-14T00:01:10;24.80;99.90
56322;DHT22;42227;6.376;-10.782;2022-11-14T00:03:57;24.80;99.90
56322;DHT22;42227;6.376;-10.782;2022-11-14T00:06:43;24.80;99.90
56322;DHT22;42227;6.376;-10.782;2022-11-14T00:09:31;24.90;99.90
56322;DHT22;42227;6.376;-10.782;2022-11-14T00:12:18;25.20;99.90
56322;DHT22;42227;6.376;-10.782;2022-11-14T00:15:04;24.90;99.90
56322;DHT22;42227;6.376;-10.782;2022-11-14T00:17:51;24.80;99.90
56322;DHT22;42227;6.376;-10.782;2022-11-14T00:20:37;24.70;99.90
56322;DHT22;42227;6.376;-10.782;2022-11-14T00:23:24;24.70;99.90
56322;DHT22;42227;6.376;-10.782;2022-11-14T00:26:10;24.70;99.90
56322;DHT22;42227;6.376;-10.782;2022-11-14T00:28:56;24.70;99.90
56322;DHT22;42227;6.376;-10.782;2022-11-14T00:31:43;24.90;99.90
56322;DHT22;42227;6.376;-10.782;2022-11-14T00:34:30;24.80;99.90
56322;DHT22;42227;6.376;-10.782;2022-11-14T00:37:17;24.80;99.90
56322;DHT22;42227;6.376;-10.782;2022-11-14T00:40:03;24.90;99.90
56322;DHT22;42227;6.376;-10.782;2022-11-14T00:42:50;24.90;99.90
56322;DHT22;42227;6.376;-10.782;2022-11-14T00:45:36;24.80;99.90
56322;DHT22;42227;6.376;-10.782;2022-11-14T00:48:22;24.70;99.90
56322;DHT22;42227;6.376;-10.782;2022-11-14T00:51:09;24.60;99.90
56322;DHT22;42227;6.376;-10.782;2022-11-14T00:53:55;24.50;99.90
56322;DHT22;42227;6.376;-10.782;2022-11-14T00:56:42;24.50;99.90
56322;DHT22;42227;6.376;-10.782;2022-11-14T00:59:28;24.70;99.90
56322;DHT22;42227;6.376;-10.782;2022-11-14T01:02:14;24.80;99.90
56322;DHT22;42227;6.376;-10.782;2022-11-14T01:05:00;24.60;99.90
56322;DHT22;42227;6.376;-10.782;2022-11-14T01:07:47;24.50;99.90
56322;DHT22;42227;6.376;-10.782;2022-11-14T01:10:37;24.40;99.90
56322;DHT22;42227;6.376;-10.782;2022-11-14T01:13:24;24.40;99.90
56322;DHT22;42227;6.376;-10.782;2022-11-14T01:16:11;24.40;99.90
56322;DHT22;42227;6.376;-10.782;2022-11-14T01:18:57;24.50;99.90
56322;DHT22;42227;6.376;-10.782;2022-11-14T01:21:44;24.70;99.90
56322;DHT22;42227;6.376;-10.782;2022-11-14T01:24:32;24.80;99.90
56322;DHT22;42227;6.376;-10.782;2022-11-14T01:27:19;24.80;99.90
56322;DHT22;42227;6.376;-10.782;2022-11-14T01:30:05;24.60;99.90
56322;DHT22;42227;6.376;-10.782;2022-11-14T01:32:52;24.60;99.90
56322;DHT22;42227;6.376;-10.782;2022-11-14T01:35:39;24.60;99.90
56322;DHT22;42227;6.376;-10.782;2022-11-14T01:38:25;24.40;99.90
56322;DHT22;42227;6.376;-10.782;2022-11-14T01:41:13;24.40;99.90
56322;DHT22;42227;6.376;-10.782;2022-11-14T01:44:00;24.40;99.90
56322;DHT22;42227;6.376;-10.782;2022-11-14T01:46:49;24.30;99.90
56322;DHT22;42227;6.376;-10.782;2022-11-14T01:49:41;24.40;99.90
56322;DHT22;42227;6.376;-10.782;2022-11-14T01:52:34;24.70;99.90
56322;DHT22;42227;6.376;-10.782;2022-11-14T01:55:21;24.70;99.90
56322;DHT22;42227;6.376;-10.782;2022-11-14T01:58:09;24.50;99.90
56322;DHT22;42227;6.376;-10.782;2022-11-14T02:00:57;24.40;99.90
56322;DHT22;42227;6.376;-10.782;2022-11-14T02:03:46;24.40;99.90
56322;DHT22;42227;6.376;-10.782;2022-11-14T02:06:35;24.30;99.90
56322;DHT22;42227;6.376;-10.782;2022-11-14T02:09:22;24.50;99.90
56322;DHT22;42227;6.376;-10.782;2022-11-14T02:12:12;24.70;99.90
56322;DHT22;42227;6.376;-10.782;2022-11-14T02:15:00;24.80;99.90
56322;DHT22;42227;6.376;-10.782;2022-11-14T02:17:47;24.90;99.90
56322;DHT22;42227;6.376;-10.782;2022-11-14T02:20:36;24.80;99.90
56322;DHT22;42227;6.376;-10.782;2022-11-14T02:23:28;24.80;99.90
56322;DHT22;42227;6.376;-10.782;2022-11-14T02:26:20;24.80;99.90
56322;DHT22;42227;6.376;-10.782;2022-11-14T02:29:08;24.60;99.90
56322;DHT22;42227;6.376;-10.782;2022-11-14T02:31:55;24.40;99.90
56322;DHT22;42227;6.376;-10.782;2022-11-14T02:34:41;24.30;99.90
56322;DHT22;42227;6.376;-10.782;2022-11-14T02:37:27;24.30;99.90
56322;DHT22;42227;6.376;-10.782;2022-11-14T02:40:14;24.30;99.90
56322;DHT22;42227;6.376;-10.782;2022-11-14T02:43:00;24.20;99.90
56322;DHT22;42227;6.376;-10.782;2022-11-14T02:45:46;24.30;99.90
56322;DHT22;42227;6.376;-10.782;2022-11-14T02:48:33;24.50;99.90
56322;DHT22;42227;6.376;-10.782;2022-11-14T02:51:20;24.40;99.90
56322;DHT22;42227;6.376;-10.782;2022-11-14T02:54:07;24.10;99.90
56322;DHT22;42227;6.376;-10.782;2022-11-14T02:56:53;24.10;99.90
56322;DHT22;42227;6.376;-10.782;2022-11-14T02:59:40;24.20;99.90
56322;DHT22;42227;6.376;-10.782;2022-11-14T03:02:26;24.10;99.90
56322;DHT22;42227;6.376;-10.782;2022-11-14T03:05:13;24.10;99.90
56322;DHT22;42227;6.376;-10.782;2022-11-14T03:07:59;24.20;99.90
56322;DHT22;42227;6.376;-10.782;2022-11-14T03:10:46;24.40;99.90
56322;DHT22;42227;6.376;-10.782;2022-11-14T03:13:33;24.50;99.90
56322;DHT22;42227;6.376;-10.782;2022-11-14T03:16:20;24.60;99.90
56322;DHT22;42227;6.376;-10.782;2022-11-14T03:19:06;24.60;99.90
56322;DHT22;42227;6.376;-10.782;2022-11-14T03:21:53;24.70;99.90
56322;DHT22;42227;6.376;-10.782;2022-11-14T03:24:39;24.70;99.90
56322;DHT22;42227;6.376;-10.782;2022-11-14T03:27:25;24.80;99.90
56322;DHT22;42227;6.376;-10.782;2022-11-14T03:30:12;24.70;99.90
56322;DHT22;42227;6.376;-10.782;2022-11-14T03:32:59;24.40;99.90
56322;DHT22;42227;6.376;-10.782;2022-11-14T03:35:47;24.40;99.90
56322;DHT22;42227;6.376;-10.782;2022-11-14T03:38:34;24.30;99.90
56322;DHT22;42227;6.376;-10.782;2022-11-14T03:41:20;24.20;99.90
56322;DHT22;42227;6.376;-10.782;2022-11-14T03:44:07;24.30;99.90
56322;DHT22;42227;6.376;-10.782;2022-11-14T03:46:53;24.20;99.90
56322;DHT22;42227;6.376;-10.782;2022-11-14T03:49:39;24.20;99.90
56322;DHT22;42227;6.376;-10.782;2022-11-14T03:52:26;24.30;99.90
56322;DHT22;42227;6.376;-10.782;2022-11-14T03:55:13;24.40;99.90
56322;DHT22;42227;6.376;-10.782;2022-11-14T03:58:00;24.50;99.90
56322;DHT22;42227;6.376;-10.782;2022-11-14T04:00:46;24.40;99.90
56322;DHT22;42227;6.376;-10.782;2022-11-14T04:03:33;24.40;99.90
56322;DHT22;42227;6.376;-10.782;2022-11-14T04:06:19;24.40;99.90
56322;DHT22;42227;6.376;-10.782;2022-11-14T04:09:06;24.40;99.90
56322;DHT22;42227;6.376;-10.782;2022-11-14T04:11:52;24.40;99.90
56322;DHT22;42227;6.376;-10.782;2022-11-14T04:14:39;24.30;99.90
56322;DHT22;42227;6.376;-10.782;2022-11-14T04:17:25;24.30;99.90
56322;DHT22;42227;6.376;-10.782;2022-11-14T04:20:13;24.50;99.90
56322;DHT22;42227;6.376;-10.782;2022-11-14T04:23:00;24.60;99.90
56322;DHT22;42227;6.376;-10.782;2022-11-14T04:25:46;24.80;99.90
56322;DHT22;42227;6.376;-10.782;2022-11-14T04:28:33;24.80;99.90
56322;DHT22;42227;6.376;-10.782;2022-11-14T04:31:20;24.80;99.90
56322;DHT22;42227;6.376;-10.782;2022-11-14T04:34:06;24.80;99.90
56322;DHT22;42227;6.376;-10.782;2022-11-14T04:36:52;24.70;99.90
56322;DHT22;42227;6.376;-10.782;2022-11-14T04:39:38;24.50;99.90
56322;DHT22;42227;6.376;-10.782;2022-11-14T04:42:25;24.50;99.90
56322;DHT22;42227;6.376;-10.782;2022-11-14T04:45:11;24.60;99.90
56322;DHT22;42227;6.376;-10.782;2022-11-14T04:47:58;24.60;99.90
56322;DHT22;42227;6.376;-10.782;2022-11-14T04:50:45;24.50;99.90
56322;DHT22;42227;6.376;-10.782;2022-11-14T04:53:31;24.20;99.90
56322;DHT22;42227;6.376;-10.782;2022-11-14T04:56:18;24.20;99.90
56322;DHT22;42227;6.376;-10.782;2022-11-14T04:59:04;24.30;99.90
56322;DHT22;42227;6.376;-10.782;2022-11-14T05:01:51;24.30;99.90
56322;DHT22;42227;6.376;-10.782;2022-11-14T05:04:37;24.30;99.90
56322;DHT22;42227;6.376;-10.782;2022-11-14T05:07:24;24.20;99.90
56322;DHT22;42227;6.376;-10.782;2022-11-14T05:10:10;24.20;99.90
56322;DHT22;42227;6.376;-10.782;2022-11-14T05:12:57;24.10;99.90
56322;DHT22;42227;6.376;-10.782;2022-11-14T05:15:43;24.50;99.90
56322;DHT22;42227;6.376;-10.782;2022-11-14T05:18:29;24.70;99.90
56322;DHT22;42227;6.376;-10.782;2022-11-14T05:21:17;24.60;99.90
56322;DHT22;42227;6.376;-10.782;2022-11-14T05:24:03;24.50;99.90
56322;DHT22;42227;6.376;-10.782;2022-11-14T05:26:50;24.40;99.90
56322;DHT22;42227;6.376;-10.782;2022-11-14T05:29:36;24.30;99.90
56322;DHT22;42227;6.376;-10.782;2022-11-14T05:32:23;24.40;99.90
56322;DHT22;42227;6.376;-10.782;2022-11-14T05:35:09;24.30;99.90
56322;DHT22;42227;6.376;-10.782;2022-11-14T05:37:55;24.10;99.90
56322;DHT22;42227;6.376;-10.782;2022-11-14T05:40:44;24.30;99.90
56322;DHT22;42227;6.376;-10.782;2022-11-14T05:43:31;24.30;99.90
56322;DHT22;42227;6.376;-10.782;2022-11-14T05:46:17;24.40;99.90
56322;DHT22;42227;6.376;-10.782;2022-11-14T05:49:04;24.40;99.90
56322;DHT22;42227;6.376;-10.782;2022-11-14T05:51:50;24.40;99.90
56322;DHT22;42227;6.376;-10.782;2022-11-14T05:54:36;24.50;99.90
56322;DHT22;42227;6.376;-10.782;2022-11-14T05:57:23;24.40;99.90
56322;DHT22;42227;6.376;-10.782;2022-11-14T06:00:10;24.30;99.90
56322;DHT22;42227;6.376;-10.782;2022-11-14T06:02:56;24.40;99.90
56322;DHT22;42227;6.376;-10.782;2022-11-14T06:05:43;24.40;99.90
56322;DHT22;42227;6.376;-10.782;2022-11-14T06:08:30;24.40;99.90
56322;DHT22;42227;6.376;-10.782;2022-11-14T06:11:19;24.40;99.90
56322;DHT22;42227;6.376;-10.782;2022-11-14T06:14:06;24.50;99.90
56322;DHT22;42227;6.376;-10.782;2022-11-14T06:16:56;24.50;99.90
56322;DHT22;42227;6.376;-10.782;2022-11-14T06:19:43;24.60;99.90
56322;DHT22;42227;6.376;-10.782;2022-11-14T06:22:29;24.30;99.90
56322;DHT22;42227;6.376;-10.782;2022-11-14T06:25:15;24.10;99.90
56322;DHT22;42227;6.376;-10.782;2022-11-14T06:28:02;24.00;99.90
56322;DHT22;42227;6.376;-10.782;2022-11-14T06:30:48;23.90;99.90
56322;DHT22;42227;6.376;-10.782;2022-11-14T06:33:36;23.90;99.90
56322;DHT22;42227;6.376;-10.782;2022-11-14T06:36:22;23.90;99.90
56322;DHT22;42227;6.376;-10.782;2022-11-14T06:39:09;23.90;99.90
56322;DHT22;42227;6.376;-10.782;2022-11-14T06:41:55;23.90;99.90
56322;DHT22;42227;6.376;-10.782;2022-11-14T06:44:41;24.00;99.90
56322;DHT22;42227;6.376;-10.782;2022-11-14T06:47:28;24.20;99.90
56322;DHT22;42227;6.376;-10.782;2022-11-14T06:50:14;24.40;99.90
56322;DHT22;42227;6.376;-10.782;2022-11-14T06:53:01;24.30;99.90
56322;DHT22;42227;6.376;-10.782;2022-11-14T06:55:54;24.40;99.90
56322;DHT22;42227;6.376;-10.782;2022-11-14T06:58:46;24.50;99.90
56322;DHT22;42227;6.376;-10.782;2022-11-14T07:01:33;24.60;99.90
56322;DHT22;42227;6.376;-10.782;2022-11-14T07:04:19;24.70;99.90
56322;DHT22;42227;6.376;-10.782;2022-11-14T07:07:05;24.80;99.90
56322;DHT22;42227;6.376;-10.782;2022-11-14T07:09:52;25.10;99.90
56322;DHT22;42227;6.376;-10.782;2022-11-14T07:12:38;25.40;99.90
56322;DHT22;42227;6.376;-10.782;2022-11-14T07:15:24;25.70;99.90
56322;DHT22;42227;6.376;-10.782;2022-11-14T07:18:11;26.10;99.90
56322;DHT22;42227;6.376;-10.782;2022-11-14T07:21:03;26.20;99.90
56322;DHT22;42227;6.376;-10.782;2022-11-14T07:23:49;26.20;99.90
56322;DHT22;42227;6.376;-10.782;2022-11-14T07:26:36;26.00;99.90
56322;DHT22;42227;6.376;-10.782;2022-11-14T07:29:22;26.40;99.90
56322;DHT22;42227;6.376;-10.782;2022-11-14T07:32:08;27.00;99.90
56322;DHT22;42227;6.376;-10.782;2022-11-14T07:34:55;28.30;99.90
56322;DHT22;42227;6.376;-10.782;2022-11-14T07:37:47;28.60;99.90
56322;DHT22;42227;6.376;-10.782;2022-11-14T07:40:34;29.30;99.90
56322;DHT22;42227;6.376;-10.782;2022-11-14T07:43:21;32.10;99.90
56322;DHT22;42227;6.376;-10.782;2022-11-14T07:46:15;33.80;99.90
56322;DHT22;42227;6.376;-10.782;2022-11-14T07:49:02;35.10;99.90
56322;DHT22;42227;6.376;-10.782;2022-11-14T07:51:49;35.10;99.90
56322;DHT22;42227;6.376;-10.782;2022-11-14T07:54:35;35.60;99.00
56322;DHT22;42227;6.376;-10.782;2022-11-14T07:57:22;33.90;99.90
56322;DHT22;42227;6.376;-10.782;2022-11-14T08:00:09;34.00;99.90
56322;DHT22;42227;6.376;-10.782;2022-11-14T08:02:56;34.80;99.90
56322;DHT22;42227;6.376;-10.782;2022-11-14T08:05:42;36.10;98.20
56322;DHT22;42227;6.376;-10.782;2022-11-14T08:08:28;36.40;97.10
56322;DHT22;42227;6.376;-10.782;2022-11-14T08:11:16;38.00;94.50
56322;DHT22;42227;6.376;-10.782;2022-11-14T08:14:19;38.90;92.60
56322;DHT22;42227;6.376;-10.782;2022-11-14T08:17:06;38.90;92.10
56322;DHT22;42227;6.376;-10.782;2022-11-14T08:19:53;39.20;91.10
56322;DHT22;42227;6.376;-10.782;2022-11-14T08:22:40;40.40;89.10
56322;DHT22;42227;6.376;-10.782;2022-11-14T08:25:29;40.60;87.40
56322;DHT22;42227;6.376;-10.782;2022-11-14T08:28:15;40.80;86.60
56322;DHT22;42227;6.376;-10.782;2022-11-14T08:31:03;40.20;86.20
56322;DHT22;42227;6.376;-10.782;2022-11-14T08:33:51;39.40;85.40
56322;DHT22;42227;6.376;-10.782;2022-11-14T08:36:38;40.10;86.30
56322;DHT22;42227;6.376;-10.782;2022-11-14T08:39:25;40.20;86.80
56322;DHT22;42227;6.376;-10.782;2022-11-14T08:42:11;40.50;85.40
56322;DHT22;42227;6.376;-10.782;2022-11-14T08:44:58;42.00;82.60
56322;DHT22;42227;6.376;-10.782;2022-11-14T08:47:54;41.10;83.30
56322;DHT22;42227;6.376;-10.782;2022-11-14T08:50:40;41.10;83.10
56322;DHT22;42227;6.376;-10.782;2022-11-14T08:53:27;39.40;88.20
56322;DHT22;42227;6.376;-10.782;2022-11-14T08:56:14;35.70;95.80
56322;DHT22;42227;6.376;-10.782;2022-11-14T08:59:03;33.40;99.90
56322;DHT22;42227;6.376;-10.782;2022-11-14T09:01:50;32.80;99.90
56322;DHT22;42227;6.376;-10.782;2022-11-14T09:04:37;32.60;99.90
56322;DHT22;42227;6.376;-10.782;2022-11-14T09:07:23;32.60;99.90
56322;DHT22;42227;6.376;-10.782;2022-11-14T09:10:10;31.80;99.90
56322;DHT22;42227;6.376;-10.782;2022-11-14T09:12:58;31.50;99.90
56322;DHT22;42227;6.376;-10.782;2022-11-14T09:15:45;32.10;99.90
56322;DHT22;42227;6.376;-10.782;2022-11-14T09:18:32;32.20;99.90
56322;DHT22;42227;6.376;-10.782;2022-11-14T09:21:19;31.90;99.90
56322;DHT22;42227;6.376;-10.782;2022-11-14T09:24:05;31.70;99.90
56322;DHT22;42227;6.376;-10.782;2022-11-14T09:26:52;30.80;99.90
56322;DHT22;42227;6.376;-10.782;2022-11-14T09:29:41;30.40;99.90
56322;DHT22;42227;6.376;-10.782;2022-11-14T09:32:28;30.50;99.90
56322;DHT22;42227;6.376;-10.782;2022-11-14T09:35:15;30.40;99.90
56322;DHT22;42227;6.376;-10.782;2022-11-14T09:38:09;30.80;99.90
56322;DHT22;42227;6.376;-10.782;2022-11-14T09:41:16;30.50;99.90
56322;DHT22;42227;6.376;-10.782;2022-11-14T09:44:18;30.70;99.90
56322;DHT22;42227;6.376;-10.782;2022-11-14T09:47:14;30.10;99.90
56322;DHT22;42227;6.376;-10.782;2022-11-14T09:50:32;30.30;99.90
56322;DHT22;42227;6.376;-10.782;2022-11-14T09:53:39;30.70;99.90
56322;DHT22;42227;6.376;-10.782;2022-11-14T09:56:28;30.90;99.90
56322;DHT22;42227;6.376;-10.782;2022-11-14T09:59:14;31.00;99.90
56322;DHT22;42227;6.376;-10.782;2022-11-14T10:18:30;30.80;99.90
56322;DHT22;42227;6.376;-10.782;2022-11-14T10:27:22;32.20;99.90
56322;DHT22;42227;6.376;-10.782;2022-11-14T10:30:18;31.90;99.90
56322;DHT22;42227;6.376;-10.782;2022-11-14T10:42:43;31.80;99.90
56322;DHT22;42227;6.376;-10.782;2022-11-14T10:45:48;31.90;99.90
56322;DHT22;42227;6.376;-10.782;2022-11-14T10:48:42;31.60;99.90
56322;DHT22;42227;6.376;-10.782;2022-11-14T10:51:37;32.10;99.90
56322;DHT22;42227;6.376;-10.782;2022-11-14T10:54:40;32.00;99.90
56322;DHT22;42227;6.376;-10.782;2022-11-14T10:57:29;31.80;99.90
56322;DHT22;42227;6.376;-10.782;2022-11-14T11:00:20;32.00;99.90
56322;DHT22;42227;6.376;-10.782;2022-11-14T11:03:07;32.50;99.90
56322;DHT22;42227;6.376;-10.782;2022-11-14T11:05:54;31.90;99.90
56322;DHT22;42227;6.376;-10.782;2022-11-14T11:08:58;32.40;99.90
56322;DHT22;42227;6.376;-10.782;2022-11-14T11:11:56;32.20;99.90
56322;DHT22;42227;6.376;-10.782;2022-11-14T11:14:45;31.90;99.90
56322;DHT22;42227;6.376;-10.782;2022-11-14T11:17:31;31.80;99.90
56322;DHT22;42227;6.376;-10.782;2022-11-14T11:20:36;31.00;99.90
56322;DHT22;42227;6.376;-10.782;2022-11-14T11:23:26;31.10;99.90
56322;DHT22;42227;6.376;-10.782;2022-11-14T11:26:25;31.40;99.90
56322;DHT22;42227;6.376;-10.782;2022-11-14T11:29:15;31.70;99.90
56322;DHT22;42227;6.376;-10.782;2022-11-14T11:32:02;32.10;99.90
56322;DHT22;42227;6.376;-10.782;2022-11-14T11:34:50;31.90;99.90
56322;DHT22;42227;6.376;-10.782;2022-11-14T11:37:57;32.00;99.90
56322;DHT22;42227;6.376;-10.782;2022-11-14T11:40:47;31.60;99.90
56322;DHT22;42227;6.376;-10.782;2022-11-14T11:43:44;31.60;99.90
56322;DHT22;42227;6.376;-10.782;2022-11-14T11:47:00;31.40;99.90
56322;DHT22;42227;6.376;-10.782;2022-11-14T11:49:49;31.90;99.90
56322;DHT22;42227;6.376;-10.782;2022-11-14T11:53:00;31.50;99.90
56322;DHT22;42227;6.376;-10.782;2022-11-14T11:56:10;31.20;99.90
56322;DHT22;42227;6.376;-10.782;2022-11-14T11:59:20;31.10;99.90
56322;DHT22;42227;6.376;-10.782;2022-11-14T12:05:05;30.80;99.90
56322;DHT22;42227;6.376;-10.782;2022-11-14T12:08:04;31.10;99.90
56322;DHT22;42227;6.376;-10.782;2022-11-14T12:10:52;31.10;99.90
56322;DHT22;42227;6.376;-10.782;2022-11-14T12:13:57;31.10;99.90
56322;DHT22;42227;6.376;-10.782;2022-11-14T12:23:27;32.20;99.90
56322;DHT22;42227;6.376;-10.782;2022-11-14T12:33:16;31.80;99.90
56322;DHT22;42227;6.376;-10.782;2022-11-14T12:36:08;31.00;99.90
56322;DHT22;42227;6.376;-10.782;2022-11-14T12:38:56;30.80;99.90
56322;DHT22;42227;6.376;-10.782;2022-11-14T12:41:43;30.60;99.90
56322;DHT22;42227;6.376;-10.782;2022-11-14T12:44:31;30.50;99.90
56322;DHT22;42227;6.376;-10.782;2022-11-14T12:47:20;30.60;99.90
56322;DHT22;42227;6.376;-10.782;2022-11-14T12:50:27;30.60;99.90
56322;DHT22;42227;6.376;-10.782;2022-11-14T13:05:22;30.40;99.90
56322;DHT22;42227;6.376;-10.782;2022-11-14T13:08:27;30.20;99.90
56322;DHT22;42227;6.376;-10.782;2022-11-14T13:14:17;30.60;99.90
56322;DHT22;42227;6.376;-10.782;2022-11-14T13:17:25;30.80;99.90
56322;DHT22;42227;6.376;-10.782;2022-11-14T13:29:00;30.70;99.90
56322;DHT22;42227;6.376;-10.782;2022-11-14T13:31:48;30.30;99.90
56322;DHT22;42227;6.376;-10.782;2022-11-14T13:47:17;30.70;99.90
56322;DHT22;42227;6.376;-10.782;2022-11-14T13:50:39;31.10;99.90
56322;DHT22;42227;6.376;-10.782;2022-11-14T13:53:27;31.90;99.90
56322;DHT22;42227;6.376;-10.782;2022-11-14T13:56:34;31.70;99.90
56322;DHT22;42227;6.376;-10.782;2022-11-14T13:59:56;31.60;99.90
56322;DHT22;42227;6.376;-10.782;2022-11-14T14:04:07;31.70;99.90
56322;DHT22;42227;6.376;-10.782;2022-11-14T14:22:21;31.20;99.90
56322;DHT22;42227;6.376;-10.782;2022-11-14T14:31:16;31.60;99.90
56322;DHT22;42227;6.376;-10.782;2022-11-14T14:37:19;32.10;99.90
56322;DHT22;42227;6.376;-10.782;2022-11-14T14:40:06;31.90;99.90
56322;DHT22;42227;6.376;-10.782;2022-11-14T14:43:15;31.40;99.90
56322;DHT22;42227;6.376;-10.782;2022-11-14T14:46:07;31.50;99.90
56322;DHT22;42227;6.376;-10.782;2022-11-14T14:48:55;31.80;99.90
56322;DHT22;42227;6.376;-10.782;2022-11-14T14:51:42;32.00;99.90
56322;DHT22;42227;6.376;-10.782;2022-11-14T14:54:29;31.90;99.90
56322;DHT22;42227;6.376;-10.782;2022-11-14T14:57:18;31.70;99.90
56322;DHT22;42227;6.376;-10.782;2022-11-14T15:00:22;31.50;99.90
56322;DHT22;42227;6.376;-10.782;2022-11-14T15:03:09;31.30;99.90
56322;DHT22;42227;6.376;-10.782;2022-11-14T15:06:01;31.00;99.90
56322;DHT22;42227;6.376;-10.782;2022-11-14T15:08:48;30.90;99.90
56322;DHT22;42227;6.376;-10.782;2022-11-14T15:11:40;30.40;99.90
56322;DHT22;42227;6.376;-10.782;2022-11-14T15:14:32;30.10;99.90
56322;DHT22;42227;6.376;-10.782;2022-11-14T15:17:19;30.20;99.90
56322;DHT22;42227;6.376;-10.782;2022-11-14T15:20:20;30.50;99.90
56322;DHT22;42227;6.376;-10.782;2022-11-14T15:26:04;30.10;99.90
56322;DHT22;42227;6.376;-10.782;2022-11-14T15:29:15;29.80;99.90
56322;DHT22;42227;6.376;-10.782;2022-11-14T15:32:03;29.70;99.90
56322;DHT22;42227;6.376;-10.782;2022-11-14T15:41:24;29.70;99.90
56322;DHT22;42227;6.376;-10.782;2022-11-14T15:44:33;29.90;99.90
56322;DHT22;42227;6.376;-10.782;2022-11-14T15:47:33;29.80;99.90
56322;DHT22;42227;6.376;-10.782;2022-11-14T15:50:29;29.50;99.90
56322;DHT22;42227;6.376;-10.782;2022-11-14T15:53:24;29.50;99.90
56322;DHT22;42227;6.376;-10.782;2022-11-14T15:56:13;29.70;99.90
56322;DHT22;42227;6.376;-10.782;2022-11-14T15:59:00;30.00;99.90
56322;DHT22;42227;6.376;-10.782;2022-11-14T16:01:49;30.30;99.90
56322;DHT22;42227;6.376;-10.782;2022-11-14T16:04:36;30.60;99.90
56322;DHT22;42227;6.376;-10.782;2022-11-14T16:07:30;30.60;99.90
56322;DHT22;42227;6.376;-10.782;2022-11-14T16:10:20;30.50;99.90
56322;DHT22;42227;6.376;-10.782;2022-11-14T16:13:06;30.40;99.90
56322;DHT22;42227;6.376;-10.782;2022-11-14T16:15:53;30.20;99.90
56322;DHT22;42227;6.376;-10.782;2022-11-14T16:18:40;30.20;99.90
56322;DHT22;42227;6.376;-10.782;2022-11-14T16:21:26;30.30;99.90
56322;DHT22;42227;6.376;-10.782;2022-11-14T16:24:16;30.50;99.90
56322;DHT22;42227;6.376;-10.782;2022-11-14T16:27:02;30.60;99.90
56322;DHT22;42227;6.376;-10.782;2022-11-14T16:29:49;30.20;99.90
56322;DHT22;42227;6.376;-10.782;2022-11-14T16:32:35;30.20;99.90
56322;DHT22;42227;6.376;-10.782;2022-11-14T16:35:26;30.10;99.90
56322;DHT22;42227;6.376;-10.782;2022-11-14T16:38:12;30.10;99.90
56322;DHT22;42227;6.376;-10.782;2022-11-14T16:40:59;30.30;99.90
56322;DHT22;42227;6.376;-10.782;2022-11-14T16:43:46;30.50;99.90
56322;DHT22;42227;6.376;-10.782;2022-11-14T16:46:32;30.50;99.90
56322;DHT22;42227;6.376;-10.782;2022-11-14T16:49:18;30.30;99.90
56322;DHT22;42227;6.376;-10.782;2022-11-14T16:52:05;30.10;99.90
56322;DHT22;42227;6.376;-10.782;2022-11-14T16:54:51;30.10;99.90
56322;DHT22;42227;6.376;-10.782;2022-11-14T16:57:39;30.10;99.90
56322;DHT22;42227;6.376;-10.782;2022-11-14T17:00:26;30.30;99.90
56322;DHT22;42227;6.376;-10.782;2022-11-14T17:03:12;30.40;99.90
56322;DHT22;42227;6.376;-10.782;2022-11-14T17:05:58;30.20;99.90
56322;DHT22;42227;6.376;-10.782;2022-11-14T17:08:45;30.10;99.90
56322;DHT22;42227;6.376;-10.782;2022-11-14T17:11:32;30.00;99.90
56322;DHT22;42227;6.376;-10.782;2022-11-14T17:14:18;29.80;99.90
56322;DHT22;42227;6.376;-10.782;2022-11-14T17:17:04;29.80;99.90
56322;DHT22;42227;6.376;-10.782;2022-11-14T17:19:51;30.10;99.90
56322;DHT22;42227;6.376;-10.782;2022-11-14T17:22:37;30.10;99.90
56322;DHT22;42227;6.376;-10.782;2022-11-14T17:25:24;29.80;99.90
56322;DHT22;42227;6.376;-10.782;2022-11-14T17:28:11;29.60;99.90
56322;DHT22;42227;6.376;-10.782;2022-11-14T17:30:58;29.40;99.90
56322;DHT22;42227;6.376;-10.782;2022-11-14T17:33:50;29.20;99.90
56322;DHT22;42227;6.376;-10.782;2022-11-14T17:36:36;29.20;99.90
56322;DHT22;42227;6.376;-10.782;2022-11-14T17:39:23;29.30;99.90
56322;DHT22;42227;6.376;-10.782;2022-11-14T17:42:09;29.50;99.90
56322;DHT22;42227;6.376;-10.782;2022-11-14T17:44:55;29.30;99.90
56322;DHT22;42227;6.376;-10.782;2022-11-14T17:47:42;29.10;99.90
56322;DHT22;42227;6.376;-10.782;2022-11-14T17:50:28;28.90;99.90
56322;DHT22;42227;6.376;-10.782;2022-11-14T17:53:22;28.80;99.90
56322;DHT22;42227;6.376;-10.782;2022-11-14T17:56:17;28.80;99.90
56322;DHT22;42227;6.376;-10.782;2022-11-14T17:59:03;29.20;99.90
56322;DHT22;42227;6.376;-10.782;2022-11-14T18:01:50;29.20;99.90
56322;DHT22;42227;6.376;-10.782;2022-11-14T18:04:36;28.80;99.90
56322;DHT22;42227;6.376;-10.782;2022-11-14T18:07:22;28.70;99.90
56322;DHT22;42227;6.376;-10.782;2022-11-14T18:10:09;28.50;99.90
56322;DHT22;42227;6.376;-10.782;2022-11-14T18:12:56;28.40;99.90
56322;DHT22;42227;6.376;-10.782;2022-11-14T18:15:42;28.30;99.90
56322;DHT22;42227;6.376;-10.782;2022-11-14T18:18:30;28.40;99.90
56322;DHT22;42227;6.376;-10.782;2022-11-14T18:21:19;28.70;99.90
56322;DHT22;42227;6.376;-10.782;2022-11-14T18:24:11;28.80;99.90
56322;DHT22;42227;6.376;-10.782;2022-11-14T18:26:57;28.50;99.90
56322;DHT22;42227;6.376;-10.782;2022-11-14T18:29:44;28.30;99.90
56322;DHT22;42227;6.376;-10.782;2022-11-14T18:32:30;28.10;99.90
56322;DHT22;42227;6.376;-10.782;2022-11-14T18:35:16;28.10;99.90
56322;DHT22;42227;6.376;-10.782;2022-11-14T18:38:03;28.00;99.90
56322;DHT22;42227;6.376;-10.782;2022-11-14T18:40:49;28.30;99.90
56322;DHT22;42227;6.376;-10.782;2022-11-14T18:43:42;28.80;99.90
56322;DHT22;42227;6.376;-10.782;2022-11-14T18:46:29;28.60;99.90
56322;DHT22;42227;6.376;-10.782;2022-11-14T18:49:22;28.30;99.90
56322;DHT22;42227;6.376;-10.782;2022-11-14T18:52:08;28.20;99.90
56322;DHT22;42227;6.376;-10.782;2022-11-14T18:55:02;28.10;99.90
56322;DHT22;42227;6.376;-10.782;2022-11-14T18:57:49;28.10;99.90
56322;DHT22;42227;6.376;-10.782;2022-11-14T19:00:36;28.20;99.90
56322;DHT22;42227;6.376;-10.782;2022-11-14T19:03:23;28.60;99.90
56322;DHT22;42227;6.376;-10.782;2022-11-14T19:06:11;28.50;99.90
56322;DHT22;42227;6.376;-10.782;2022-11-14T19:08:59;28.30;99.90
56322;DHT22;42227;6.376;-10.782;2022-11-14T19:11:49;28.20;99.90
56322;DHT22;42227;6.376;-10.782;2022-11-14T19:14:36;28.10;99.90
56322;DHT22;42227;6.376;-10.782;2022-11-14T19:17:22;28.00;99.90
56322;DHT22;42227;6.376;-10.782;2022-11-14T19:20:10;28.00;99.90
56322;DHT22;42227;6.376;-10.782;2022-11-14T19:22:59;28.40;99.90
56322;DHT22;42227;6.376;-10.782;2022-11-14T19:25:45;28.80;99.90
56322;DHT22;42227;6.376;-10.782;2022-11-14T19:28:32;28.50;99.90
56322;DHT22;42227;6.376;-10.782;2022-11-14T19:31:19;28.20;99.90